Time;durP1;ratioP1;P1;durP2;ratioP2;P2;SDS_P1;SDS_P2;PMS_P1;PMS_P2;Temp;Humidity;BMP_temperature;BMP_pressure;BME280_temperature;BME280_humidity;BME280_pressure;Samples;Min_cycle;Max_cycle;Signal;HPM_P1;HPM_P2
2023/11/29 00:01:48;;;;;;;17.50;8.43;;;;;;;;;;5000941;28;20038;-68
2023/11/29 00:04:14;;;;;;;16.50;7.77;;;;;;;;;;4991949;28;20049;-68
2023/11/29 00:06:39;;;;;;;21.53;9.03;;;;;;;;;;5004099;28;20394;-73
2023/11/29 00:09:05;;;;;;;17.67;8.57;;;;;;;;;;5011572;28;20041;-69
2023/11/29 00:11:31;;;;;;;23.37;9.33;;;;;;;;;;5011161;28;20033;-69
2023/11/29 00:13:58;;;;;;;19.50;8.97;;;;;;;;;;5011009;28;20390;-69
2023/11/29 00:16:24;;;;;;;20.87;10.43;;;;;;;;;;5011035;28;20128;-70
2023/11/29 00:18:49;;;;;;;21.80;9.43;;;;;;;;;;4998622;28;20169;-70
2023/11/29 00:21:16;;;;;;;22.30;9.87;;;;;;;;;;4990274;28;20030;-71
2023/11/29 00:23:42;;;;;;;21.40;10.20;;;;;;;;;;4990214;28;20037;-69
2023/11/29 00:26:09;;;;;;;20.57;9.40;;;;;;;;;;4991298;28;20030;-68
2023/11/29 00:28:35;;;;;;;22.47;9.70;;;;;;;;;;4991607;28;20131;-68
2023/11/29 00:31:01;;;;;;;18.53;9.40;;;;;;;;;;4999057;28;20177;-69
2023/11/29 00:33:27;;;;;;;18.50;9.00;;;;;;;;;;4990140;28;20022;-70
2023/11/29 00:35:54;;;;;;;21.07;9.83;;;;;;;;;;4989901;28;20037;-69
2023/11/29 00:38:19;;;;;;;23.70;8.67;;;;;;;;;;4991535;28;20132;-69
2023/11/29 00:40:45;;;;;;;23.93;9.20;;;;;;;;;;4990032;28;20038;-70
2023/11/29 00:43:11;;;;;;;19.33;9.47;;;;;;;;;;4992550;28;20042;-70
2023/11/29 00:45:36;;;;;;;24.23;10.17;;;;;;;;;;4991126;28;20457;-69
2023/11/29 00:48:02;;;;;;;16.20;9.07;;;;;;;;;;4990978;28;20065;-72
2023/11/29 00:50:29;;;;;;;25.03;9.70;;;;;;;;;;4991579;28;20062;-68
2023/11/29 00:52:56;;;;;;;18.67;8.90;;;;;;;;;;4991166;28;20054;-69
2023/11/29 00:55:22;;;;;;;26.30;10.97;;;;;;;;;;4989784;28;20041;-71
2023/11/29 00:57:48;;;;;;;23.87;9.73;;;;;;;;;;4999943;28;20089;-70
2023/11/29 01:00:14;;;;;;;18.67;8.43;;;;;;;;;;4990022;28;20462;-69
2023/11/29 01:02:39;;;;;;;24.57;10.50;;;;;;;;;;4989267;28;20030;-69
2023/11/29 01:05:05;;;;;;;17.93;9.53;;;;;;;;;;4989564;28;20026;-68
2023/11/29 01:07:32;;;;;;;17.83;9.67;;;;;;;;;;4991457;28;20109;-69
2023/11/29 01:10:01;;;;;;;19.40;10.10;;;;;;;;;;4993967;28;20096;-69
2023/11/29 01:12:26;;;;;;;25.07;10.63;;;;;;;;;;4996169;28;20042;-70
2023/11/29 01:14:52;;;;;;;20.37;10.33;;;;;;;;;;4994765;28;20041;-69
2023/11/29 01:17:18;;;;;;;20.13;9.53;;;;;;;;;;4994566;28;20603;-69
2023/11/29 01:19:45;;;;;;;21.90;10.17;;;;;;;;;;4993340;28;20053;-70
2023/11/29 01:22:10;;;;;;;25.60;10.80;;;;;;;;;;5010073;28;20402;-70
2023/11/29 01:24:36;;;;;;;22.23;9.70;;;;;;;;;;4993545;28;20040;-69
2023/11/29 01:27:03;;;;;;;19.80;10.13;;;;;;;;;;4993339;28;20038;-69
2023/11/29 01:29:36;;;;;;;25.57;10.77;;;;;;;;;;4994873;28;20109;-69
2023/11/29 01:32:03;;;;;;;26.23;9.65;;;;;;;;;;4994661;28;20038;-69
2023/11/29 01:34:30;;;;;;;21.70;10.77;;;;;;;;;;4993119;28;20026;-70
2023/11/29 01:36:59;;;;;;;25.77;11.30;;;;;;;;;;5008964;28;20094;-71
2023/11/29 01:39:24;;;;;;;22.43;9.73;;;;;;;;;;4996307;28;20483;-70
2023/11/29 01:41:51;;;;;;;18.87;9.20;;;;;;;;;;5012462;28;20085;-70
2023/11/29 01:44:17;;;;;;;26.67;10.87;;;;;;;;;;5013683;28;20030;-68
2023/11/29 01:46:43;;;;;;;23.20;10.47;;;;;;;;;;5017540;28;20025;-70
2023/11/29 01:49:09;;;;;;;22.50;10.87;;;;;;;;;;5018360;28;20445;-69
2023/11/29 01:51:35;;;;;;;25.27;10.83;;;;;;;;;;5013196;28;20048;-69
2023/11/29 01:54:03;;;;;;;21.77;10.40;;;;;;;;;;5008309;28;20026;-69
2023/11/29 01:56:30;;;;;;;17.93;9.00;;;;;;;;;;5009288;28;20046;-69
2023/11/29 01:58:56;;;;;;;22.90;10.27;;;;;;;;;;5008762;28;20112;-69
2023/11/29 02:01:23;;;;;;;20.90;9.60;;;;;;;;;;5001186;28;20421;-69
2023/11/29 02:03:49;;;;;;;23.60;11.00;;;;;;;;;;5013492;28;20125;-71
2023/11/29 02:06:19;;;;;;;21.53;9.97;;;;;;;;;;5012315;28;20101;-70
2023/11/29 02:08:46;;;;;;;18.93;10.20;;;;;;;;;;5002836;28;20587;-68
2023/11/29 02:11:18;;;;;;;17.27;9.47;;;;;;;;;;4992555;28;20050;-69
2023/11/29 02:13:43;;;;;;;24.38;10.35;;;;;;;;;;4992543;28;20315;-69
2023/11/29 02:16:09;;;;;;;20.67;10.90;;;;;;;;;;4993056;28;20049;-68
2023/11/29 02:18:36;;;;;;;18.57;8.73;;;;;;;;;;4993870;28;20030;-70
2023/11/29 02:21:02;;;;;;;19.77;8.23;;;;;;;;;;4992429;28;20483;-71
2023/11/29 02:23:51;;;;;;;21.40;8.90;;;;;;;;;;4992671;28;20034;-71
2023/11/29 02:26:19;;;;;;;19.17;8.03;;;;;;;;;;5011582;28;20037;-70
2023/11/29 02:28:45;;;;;;;19.73;8.93;;;;;;;;;;5011897;28;20029;-69
2023/11/29 02:31:13;;;;;;;16.20;8.13;;;;;;;;;;5013449;28;20030;-70
2023/11/29 02:33:38;;;;;;;19.47;9.13;;;;;;;;;;5011923;28;20105;-69
2023/11/29 02:36:04;;;;;;;17.50;8.27;;;;;;;;;;5009133;28;20030;-68
2023/11/29 02:38:30;;;;;;;17.17;8.40;;;;;;;;;;4993206;28;20026;-69
2023/11/29 02:40:56;;;;;;;19.00;8.47;;;;;;;;;;4993214;28;20022;-72
2023/11/29 02:43:22;;;;;;;16.27;7.97;;;;;;;;;;4991971;28;20113;-70
2023/11/29 02:45:47;;;;;;;18.43;8.33;;;;;;;;;;5008142;28;20435;-70
2023/11/29 02:48:26;;;;;;;15.63;7.43;;;;;;;;;;4991403;28;20026;-70
2023/11/29 02:50:52;;;;;;;19.40;8.50;;;;;;;;;;4993378;28;20112;-70
2023/11/29 02:53:18;;;;;;;17.37;7.87;;;;;;;;;;4993526;28;20055;-69
2023/11/29 02:55:50;;;;;;;16.33;7.20;;;;;;;;;;5007370;28;20033;-70
2023/11/29 02:58:17;;;;;;;14.07;7.97;;;;;;;;;;5011519;28;20030;-70
2023/11/29 03:00:43;;;;;;;16.53;7.90;;;;;;;;;;5009506;28;20033;-70
2023/11/29 03:03:09;;;;;;;16.37;7.90;;;;;;;;;;4991406;28;20033;-68
2023/11/29 03:05:35;;;;;;;15.83;7.20;;;;;;;;;;5003526;28;20088;-69
2023/11/29 03:08:04;;;;;;;17.53;7.47;;;;;;;;;;5011051;28;20038;-70
2023/11/29 03:10:30;;;;;;;13.53;8.03;;;;;;;;;;5011381;28;20056;-70
2023/11/29 03:12:55;;;;;;;18.30;8.77;;;;;;;;;;5012789;28;20467;-67
2023/11/29 03:15:23;;;;;;;20.50;9.43;;;;;;;;;;5012982;28;20066;-71
2023/11/29 03:17:49;;;;;;;15.13;7.17;;;;;;;;;;5012524;28;20064;-69
2023/11/29 03:20:15;;;;;;;20.93;8.53;;;;;;;;;;4996236;28;20026;-68
2023/11/29 03:22:42;;;;;;;17.73;8.30;;;;;;;;;;5001155;28;20038;-69
2023/11/29 03:25:08;;;;;;;17.53;7.60;;;;;;;;;;4994430;28;20037;-68
2023/11/29 03:27:35;;;;;;;18.33;8.60;;;;;;;;;;4994408;28;20559;-70
2023/11/29 03:30:01;;;;;;;17.20;7.87;;;;;;;;;;4994009;28;20050;-69
2023/11/29 03:32:27;;;;;;;14.47;7.63;;;;;;;;;;4991182;28;20065;-69
2023/11/29 03:34:54;;;;;;;14.97;7.83;;;;;;;;;;5010616;28;20544;-69
2023/11/29 03:37:25;;;;;;;;;;;;;;;;;;5012205;28;20040;-68
2023/11/29 03:39:50;;;;;;;14.47;6.83;;;;;;;;;;5010485;28;19988;-70
2023/11/29 03:42:16;;;;;;;13.13;7.70;;;;;;;;;;5011595;28;20049;-69
2023/11/29 03:44:44;;;;;;;17.17;7.43;;;;;;;;;;5011947;28;20033;-69
2023/11/29 03:47:09;;;;;;;18.20;9.20;;;;;;;;;;5008527;28;20060;-69
2023/11/29 03:49:37;;;;;;;18.73;8.80;;;;;;;;;;4991490;28;20053;-69
2023/11/29 03:52:03;;;;;;;18.93;8.13;;;;;;;;;;4991691;28;20027;-70
2023/11/29 03:54:35;;;;;;;18.63;7.87;;;;;;;;;;5006376;28;20088;-68
2023/11/29 03:57:01;;;;;;;16.98;7.65;;;;;;;;;;5006349;28;20388;-69
2023/11/29 03:59:28;;;;;;;19.47;8.27;;;;;;;;;;4990036;28;20031;-69
2023/11/29 04:01:54;;;;;;;17.30;7.53;;;;;;;;;;5001440;28;20056;-71
2023/11/29 04:04:23;;;;;;;18.10;7.00;;;;;;;;;;5011493;28;20022;-69
2023/11/29 04:06:49;;;;;;;17.87;7.70;;;;;;;;;;5010128;28;20783;-69
2023/11/29 04:09:15;;;;;;;17.40;7.50;;;;;;;;;;5009680;28;20152;-70
2023/11/29 04:11:43;;;;;;;15.03;7.27;;;;;;;;;;5011433;28;20049;-69
2023/11/29 04:14:09;;;;;;;16.40;7.90;;;;;;;;;;5011390;28;20482;-70
2023/11/29 04:16:35;;;;;;;15.10;6.67;;;;;;;;;;5009363;28;20045;-71
2023/11/29 04:19:00;;;;;;;13.63;6.97;;;;;;;;;;5012537;28;20021;-70
2023/11/29 04:21:32;;;;;;;13.50;7.50;;;;;;;;;;5012934;28;20443;-70
2023/11/29 04:23:58;;;;;;;13.80;7.68;;;;;;;;;;5010538;28;20050;-69
2023/11/29 04:26:25;;;;;;;16.50;7.33;;;;;;;;;;5009609;28;20103;-68
2023/11/29 04:28:51;;;;;;;14.57;7.50;;;;;;;;;;5010763;28;20036;-69
2023/11/29 04:31:18;;;;;;;13.97;6.97;;;;;;;;;;4995441;28;20096;-70
2023/11/29 04:33:45;;;;;;;19.40;7.77;;;;;;;;;;4989923;28;20022;-71
2023/11/29 04:36:11;;;;;;;17.57;7.87;;;;;;;;;;4989415;28;20026;-69
2023/11/29 04:38:38;;;;;;;15.27;7.77;;;;;;;;;;4990862;28;20033;-71
2023/11/29 04:41:05;;;;;;;17.60;8.53;;;;;;;;;;5004612;28;20030;-69
2023/11/29 04:43:31;;;;;;;16.97;7.93;;;;;;;;;;4989474;28;20109;-70
2023/11/29 04:46:00;;;;;;;21.43;9.50;;;;;;;;;;5005134;28;20042;-69
2023/11/29 04:48:27;;;;;;;18.73;8.70;;;;;;;;;;4990292;28;20030;-70
2023/11/29 04:50:53;;;;;;;16.77;9.17;;;;;;;;;;5006798;28;20026;-71
2023/11/29 04:53:19;;;;;;;18.20;9.00;;;;;;;;;;4990762;28;20018;-69
2023/11/29 04:55:44;;;;;;;23.53;9.73;;;;;;;;;;4992395;28;20081;-72
2023/11/29 04:58:12;;;;;;;23.23;9.40;;;;;;;;;;4998805;28;20049;-70
2023/11/29 05:00:37;;;;;;;17.83;9.37;;;;;;;;;;5010143;28;20029;-70
2023/11/29 05:03:03;;;;;;;19.47;9.67;;;;;;;;;;4990953;28;20503;-70
2023/11/29 05:05:29;;;;;;;20.47;9.50;;;;;;;;;;4991154;28;20101;-71
2023/11/29 05:07:55;;;;;;;19.70;9.13;;;;;;;;;;4989277;28;20030;-68
2023/11/29 05:10:24;;;;;;;17.83;9.50;;;;;;;;;;5006585;28;20034;-70
2023/11/29 05:12:52;;;;;;;21.47;9.67;;;;;;;;;;5004899;28;20032;-70
2023/11/29 05:15:19;;;;;;;19.83;8.67;;;;;;;;;;5012854;28;20056;-70
2023/11/29 05:17:45;;;;;;;17.50;8.77;;;;;;;;;;5027941;28;20030;-70
2023/11/29 05:20:11;;;;;;;16.50;8.20;;;;;;;;;;5009397;28;20033;-68
2023/11/29 05:22:37;;;;;;;22.23;10.07;;;;;;;;;;5010699;28;20096;-68
2023/11/29 05:25:03;;;;;;;19.00;9.60;;;;;;;;;;5008665;28;20108;-69
2023/11/29 05:27:29;;;;;;;21.03;10.23;;;;;;;;;;5008311;28;20033;-68
2023/11/29 05:29:57;;;;;;;17.70;9.73;;;;;;;;;;5008686;28;20076;-68
2023/11/29 05:32:23;;;;;;;16.70;9.53;;;;;;;;;;5010370;28;20474;-71
2023/11/29 05:34:48;;;;;;;28.03;10.53;;;;;;;;;;5008584;28;20025;-68
2023/11/29 05:37:14;;;;;;;18.83;9.37;;;;;;;;;;5008129;28;20036;-70
2023/11/29 05:39:40;;;;;;;20.77;9.07;;;;;;;;;;5008452;28;20022;-70
2023/11/29 05:42:06;;;;;;;21.60;9.47;;;;;;;;;;5000344;28;20046;-71
2023/11/29 05:44:32;;;;;;;22.27;9.20;;;;;;;;;;5005324;28;20030;-69
2023/11/29 05:47:01;;;;;;;19.30;9.43;;;;;;;;;;5005571;28;20415;-71
2023/11/29 05:49:28;;;;;;;19.13;9.07;;;;;;;;;;4988882;28;20098;-69
2023/11/29 05:51:54;;;;;;;27.07;10.03;;;;;;;;;;4990086;28;20026;-71
2023/11/29 05:54:23;;;;;;;17.50;9.37;;;;;;;;;;4994950;28;20026;-69
2023/11/29 05:56:48;;;;;;;18.63;9.17;;;;;;;;;;5011478;28;20195;-69
2023/11/29 05:59:14;;;;;;;13.73;7.40;;;;;;;;;;5012308;28;20593;-69
2023/11/29 06:01:40;;;;;;;23.13;9.83;;;;;;;;;;5013347;28;20033;-70
2023/11/29 06:04:06;;;;;;;18.97;9.43;;;;;;;;;;5013134;28;20331;-68
2023/11/29 06:06:35;;;;;;;22.30;10.77;;;;;;;;;;5012335;28;20478;-70
2023/11/29 06:09:01;;;;;;;22.63;10.00;;;;;;;;;;5012846;28;20055;-69
2023/11/29 06:11:27;;;;;;;20.43;9.27;;;;;;;;;;5011875;28;20030;-70
2023/11/29 06:13:53;;;;;;;17.70;8.93;;;;;;;;;;5011531;28;20246;-69
2023/11/29 06:16:19;;;;;;;23.70;9.83;;;;;;;;;;5012662;28;20074;-69
2023/11/29 06:18:46;;;;;;;17.17;9.60;;;;;;;;;;5013185;28;20417;-68
2023/11/29 06:21:14;;;;;;;16.00;8.30;;;;;;;;;;5011344;28;20030;-68
2023/11/29 06:23:40;;;;;;;17.87;7.97;;;;;;;;;;4999780;28;20037;-70
2023/11/29 06:26:06;;;;;;;17.43;9.40;;;;;;;;;;4999677;28;20026;-69
2023/11/29 06:28:38;;;;;;;17.50;8.23;;;;;;;;;;5008497;28;20073;-68
2023/11/29 06:31:10;;;;;;;16.87;8.47;;;;;;;;;;5022031;28;20025;-71
2023/11/29 06:33:37;;;;;;;29.40;15.77;;;;;;;;;;5030737;28;20025;-69
2023/11/29 06:36:03;;;;;;;19.10;9.17;;;;;;;;;;5030570;28;20029;-69
2023/11/29 06:38:31;;;;;;;20.00;9.00;;;;;;;;;;5015613;28;20101;-70
2023/11/29 06:40:58;;;;;;;18.57;9.27;;;;;;;;;;5007449;28;20556;-68
2023/11/29 06:43:24;;;;;;;14.73;8.47;;;;;;;;;;5012223;28;20092;-69
2023/11/29 06:45:49;;;;;;;19.47;8.80;;;;;;;;;;5011709;28;20029;-69
2023/11/29 06:48:18;;;;;;;15.17;7.83;;;;;;;;;;5012550;28;20025;-69
2023/11/29 06:50:45;;;;;;;18.80;8.03;;;;;;;;;;4997558;28;20569;-68
2023/11/29 06:53:12;;;;;;;15.20;7.47;;;;;;;;;;5015990;28;20133;-71
2023/11/29 06:55:38;;;;;;;19.87;7.53;;;;;;;;;;5012213;28;20041;-68
2023/11/29 06:58:05;;;;;;;19.20;10.07;;;;;;;;;;5019409;28;20507;-71
2023/11/29 07:00:31;;;;;;;21.60;7.50;;;;;;;;;;4995560;28;20065;-71
2023/11/29 07:02:57;;;;;;;14.80;7.47;;;;;;;;;;5003167;28;20033;-68
2023/11/29 07:05:22;;;;;;;16.47;9.43;;;;;;;;;;5009855;28;20052;-69
2023/11/29 07:07:49;;;;;;;12.57;6.93;;;;;;;;;;5007561;28;20053;-70
2023/11/29 07:10:14;;;;;;;18.10;9.30;;;;;;;;;;4999394;28;20026;-69
2023/11/29 07:12:40;;;;;;;15.33;8.23;;;;;;;;;;5007589;28;20023;-71
2023/11/29 07:15:07;;;;;;;15.07;8.70;;;;;;;;;;5017232;28;20042;-71
2023/11/29 07:17:33;;;;;;;16.80;8.27;;;;;;;;;;5022186;28;20466;-70
2023/11/29 07:20:00;;;;;;;26.07;9.67;;;;;;;;;;5000306;28;20041;-70
2023/11/29 07:22:27;;;;;;;20.03;8.20;;;;;;;;;;5004645;28;20026;-70
2023/11/29 07:24:53;;;;;;;32.03;14.77;;;;;;;;;;5013306;28;20026;-67
2023/11/29 07:27:22;;;;;;;18.27;9.00;;;;;;;;;;5037769;28;20094;-69
2023/11/29 07:29:48;;;;;;;14.37;6.93;;;;;;;;;;5013012;28;20057;-69
2023/11/29 07:32:17;;;;;;;13.03;6.90;;;;;;;;;;4994070;28;20049;-70
2023/11/29 07:34:46;;;;;;;16.43;7.23;;;;;;;;;;5003715;28;20429;-70
2023/11/29 07:37:13;;;;;;;11.93;6.33;;;;;;;;;;5009368;28;20588;-72
2023/11/29 07:40:09;;;;;;;10.07;5.90;;;;;;;;;;5002024;28;20029;-71
2023/11/29 07:42:35;;;;;;;12.27;5.67;;;;;;;;;;5019794;28;20454;-69
2023/11/29 07:45:01;;;;;;;8.10;4.90;;;;;;;;;;5024180;28;20024;-70
2023/11/29 07:47:32;;;;;;;7.67;4.80;;;;;;;;;;5004815;28;20025;-70
2023/11/29 07:49:57;;;;;;;7.75;4.18;;;;;;;;;;5015788;28;20124;-68
2023/11/29 07:52:23;;;;;;;4.87;3.50;;;;;;;;;;5004632;28;20192;-70
2023/11/29 07:54:49;;;;;;;6.07;3.73;;;;;;;;;;4998876;28;20022;-69
2023/11/29 07:57:15;;;;;;;6.50;3.33;;;;;;;;;;4997007;28;20498;-70
2023/11/29 07:59:44;;;;;;;8.40;3.87;;;;;;;;;;5002466;28;20026;-67
2023/11/29 08:02:10;;;;;;;6.83;3.27;;;;;;;;;;5006684;28;20032;-70
2023/11/29 08:04:35;;;;;;;3.87;2.57;;;;;;;;;;4999603;28;20038;-67
2023/11/29 08:07:00;;;;;;;5.33;3.13;;;;;;;;;;5004208;28;20115;-69
2023/11/29 08:09:26;;;;;;;5.43;3.53;;;;;;;;;;5009633;28;20038;-71
2023/11/29 08:11:51;;;;;;;3.77;2.77;;;;;;;;;;5012724;28;20372;-69
2023/11/29 08:14:17;;;;;;;3.63;2.80;;;;;;;;;;5005401;28;20033;-69
2023/11/29 08:16:43;;;;;;;4.47;2.93;;;;;;;;;;5004017;28;20152;-67
2023/11/29 08:19:08;;;;;;;5.50;2.87;;;;;;;;;;4993247;28;20037;-69
2023/11/29 08:21:34;;;;;;;3.97;2.53;;;;;;;;;;4996438;28;20038;-71
2023/11/29 08:23:59;;;;;;;4.50;2.60;;;;;;;;;;4996981;28;20041;-69
2023/11/29 08:26:25;;;;;;;4.40;2.43;;;;;;;;;;4997128;28;20487;-70
2023/11/29 08:28:51;;;;;;;3.17;2.20;;;;;;;;;;5001414;28;20029;-70
2023/11/29 08:31:17;;;;;;;6.60;2.03;;;;;;;;;;5008735;28;20099;-69
2023/11/29 08:33:44;;;;;;;4.47;3.03;;;;;;;;;;5005238;28;20060;-69
2023/11/29 08:36:15;;;;;;;4.17;3.00;;;;;;;;;;5016786;28;20033;-70
2023/11/29 08:38:43;;;;;;;2.43;2.23;;;;;;;;;;5001811;28;20025;-70
2023/11/29 08:41:09;;;;;;;4.07;2.10;;;;;;;;;;4996993;28;20095;-69
2023/11/29 08:43:34;;;;;;;3.33;2.10;;;;;;;;;;5016455;28;20034;-69
2023/11/29 08:46:00;;;;;;;3.30;2.17;;;;;;;;;;5004363;28;20077;-72
2023/11/29 08:48:26;;;;;;;3.13;2.30;;;;;;;;;;4997512;28;20104;-69
2023/11/29 08:50:52;;;;;;;3.53;2.63;;;;;;;;;;4997497;28;20514;-70
2023/11/29 08:53:19;;;;;;;1.90;1.73;;;;;;;;;;4999545;28;20031;-72
2023/11/29 08:55:51;;;;;;;2.73;2.33;;;;;;;;;;5002488;28;20037;-70
2023/11/29 08:58:22;;;;;;;5.35;2.65;;;;;;;;;;4998482;28;20041;-69
2023/11/29 09:00:47;;;;;;;2.93;2.20;;;;;;;;;;4997857;28;20048;-70
2023/11/29 09:03:17;;;;;;;4.03;2.87;;;;;;;;;;4998552;28;20040;-72
2023/11/29 09:05:44;;;;;;;4.10;2.53;;;;;;;;;;5004601;28;20117;-69
2023/11/29 09:08:11;;;;;;;5.83;2.70;;;;;;;;;;5004696;28;20113;-69
2023/11/29 09:10:39;;;;;;;6.70;3.20;;;;;;;;;;5007462;28;20645;-68
2023/11/29 09:13:07;;;;;;;3.37;2.30;;;;;;;;;;5001167;28;20033;-68
2023/11/29 09:15:33;;;;;;;5.70;3.47;;;;;;;;;;5015292;28;20093;-67
2023/11/29 09:18:01;;;;;;;4.80;2.53;;;;;;;;;;5008537;28;20021;-68
2023/11/29 09:20:26;;;;;;;4.30;2.97;;;;;;;;;;5002500;28;20025;-66
2023/11/29 09:22:53;;;;;;;4.27;3.03;;;;;;;;;;5004884;28;20040;-68
2023/11/29 09:25:19;;;;;;;4.50;2.80;;;;;;;;;;5000178;28;20030;-70
2023/11/29 09:27:44;;;;;;;4.97;3.30;;;;;;;;;;5023865;28;20048;-72
2023/11/29 09:30:13;;;;;;;4.47;3.20;;;;;;;;;;5002310;28;20030;-69
2023/11/29 09:32:38;;;;;;;8.07;3.70;;;;;;;;;;5006488;28;20029;-68
2023/11/29 09:35:04;;;;;;;4.97;3.07;;;;;;;;;;4999792;28;20040;-68
2023/11/29 09:37:30;;;;;;;5.40;2.60;;;;;;;;;;4999079;28;20470;-69
2023/11/29 09:39:57;;;;;;;3.83;2.73;;;;;;;;;;4999384;28;20125;-67
2023/11/29 09:42:24;;;;;;;3.03;2.70;;;;;;;;;;5004399;28;20045;-69
2023/11/29 09:44:53;;;;;;;7.47;3.40;;;;;;;;;;5004018;28;20494;-71
2023/11/29 09:47:26;;;;;;;4.07;2.67;;;;;;;;;;5001646;28;20252;-68
2023/11/29 09:49:52;;;;;;;5.70;2.70;;;;;;;;;;5022464;28;20072;-69
2023/11/29 09:52:23;;;;;;;4.27;2.90;;;;;;;;;;5001225;28;20129;-72
2023/11/29 09:54:48;;;;;;;5.23;3.00;;;;;;;;;;5002213;28;20037;-68
2023/11/29 09:57:14;;;;;;;4.57;3.00;;;;;;;;;;5003214;28;20809;-68
2023/11/29 09:59:41;;;;;;;2.90;2.30;;;;;;;;;;5005220;28;20037;-68
2023/11/29 10:02:07;;;;;;;5.33;3.00;;;;;;;;;;4977296;28;20049;-72
2023/11/29 10:04:39;;;;;;;8.17;4.03;;;;;;;;;;4991993;28;20041;-69
2023/11/29 10:07:05;;;;;;;4.77;3.10;;;;;;;;;;5004529;28;20025;-70
2023/11/29 10:09:38;;;;;;;5.10;3.27;;;;;;;;;;5006573;28;20030;-67
2023/11/29 10:12:13;;;;;;;3.83;2.63;;;;;;;;;;4998373;28;20084;-68
2023/11/29 10:14:43;;;;;;;6.67;3.20;;;;;;;;;;5011931;28;20018;-70
2023/11/29 10:17:16;;;;;;;4.87;2.73;;;;;;;;;;5013365;28;20532;-68
2023/11/29 10:19:44;;;;;;;4.00;2.30;;;;;;;;;;5003119;28;20512;-70
2023/11/29 10:22:15;;;;;;;6.37;3.00;;;;;;;;;;5000759;28;20057;-71
2023/11/29 10:24:41;;;;;;;4.23;2.90;;;;;;;;;;5004778;28;20053;-69
2023/11/29 10:27:08;;;;;;;4.87;2.60;;;;;;;;;;5002994;28;20423;-70
2023/11/29 10:29:34;;;;;;;4.53;2.93;;;;;;;;;;5000272;28;20069;-71
2023/11/29 10:32:03;;;;;;;4.20;3.60;;;;;;;;;;4999565;28;20057;-69
2023/11/29 10:34:33;;;;;;;4.00;2.87;;;;;;;;;;5000269;28;20026;-68
2023/11/29 10:37:03;;;;;;;4.00;3.20;;;;;;;;;;5020341;28;20113;-68
2023/11/29 10:39:33;;;;;;;3.53;2.73;;;;;;;;;;5007500;28;20128;-68
2023/11/29 10:42:00;;;;;;;5.17;3.30;;;;;;;;;;5010523;28;20108;-71
2023/11/29 10:44:31;;;;;;;5.20;2.60;;;;;;;;;;5006153;28;20105;-70
2023/11/29 10:47:13;;;;;;;6.43;4.27;;;;;;;;;;5004862;28;20018;-70
2023/11/29 10:49:47;;;;;;;4.25;3.13;;;;;;;;;;5010006;28;20543;-68
2023/11/29 10:52:15;;;;;;;5.47;3.07;;;;;;;;;;5001546;28;20088;-68
2023/11/29 10:54:45;;;;;;;7.50;3.87;;;;;;;;;;5010083;28;20038;-70
2023/11/29 10:57:12;;;;;;;9.17;4.47;;;;;;;;;;5000843;28;20066;-69
2023/11/29 10:59:46;;;;;;;5.70;3.63;;;;;;;;;;5001097;28;20038;-70
2023/11/29 11:02:11;;;;;;;7.47;4.20;;;;;;;;;;5014084;28;20065;-70
2023/11/29 11:04:44;;;;;;;8.60;4.50;;;;;;;;;;5004399;28;20556;-71
2023/11/29 11:07:42;;;;;;;5.50;3.60;;;;;;;;;;5001576;28;20076;-69
2023/11/29 11:10:21;;;;;;;9.10;5.20;;;;;;;;;;5002106;28;20038;-68
2023/11/29 11:12:47;;;;;;;6.37;4.03;;;;;;;;;;5004374;28;20045;-69
2023/11/29 11:15:24;;;;;;;12.93;4.77;;;;;;;;;;5005130;28;20041;-70
2023/11/29 11:18:05;;;;;;;7.53;4.33;;;;;;;;;;4998194;28;20038;-68
2023/11/29 11:20:51;;;;;;;7.87;4.77;;;;;;;;;;5000122;28;20601;-71
2023/11/29 11:23:18;;;;;;;10.33;4.63;;;;;;;;;;4996534;28;20475;-73
2023/11/29 11:25:43;;;;;;;8.50;4.50;;;;;;;;;;5004590;28;20121;-70
2023/11/29 11:28:31;;;;;;;6.23;4.07;;;;;;;;;;4999347;28;20793;-69
2023/11/29 11:31:06;;;;;;;4.43;3.03;;;;;;;;;;5002413;28;20141;-68
2023/11/29 11:33:50;;;;;;;7.27;4.17;;;;;;;;;;5004351;28;20120;-69
2023/11/29 11:36:22;;;;;;;8.00;5.07;;;;;;;;;;5005665;28;20060;-70
2023/11/29 11:38:48;;;;;;;11.60;5.25;;;;;;;;;;4999976;28;20490;-68
2023/11/29 11:41:14;;;;;;;20.87;10.67;;;;;;;;;;5012493;28;20030;-69
2023/11/29 11:43:40;;;;;;;8.33;5.40;;;;;;;;;;5006000;28;20033;-68
2023/11/29 11:46:05;;;;;;;10.07;5.13;;;;;;;;;;5009280;28;20038;-70
2023/11/29 11:48:32;;;;;;;8.10;4.60;;;;;;;;;;5005744;28;20026;-70
2023/11/29 11:50:59;;;;;;;6.17;4.07;;;;;;;;;;5021639;28;20503;-70
2023/11/29 11:53:25;;;;;;;6.33;4.30;;;;;;;;;;5002861;28;20040;-69
2023/11/29 11:55:51;;;;;;;7.57;4.60;;;;;;;;;;5009993;28;20037;-69
2023/11/29 11:58:21;;;;;;;6.00;3.97;;;;;;;;;;5004081;28;20038;-70
2023/11/29 12:00:47;;;;;;;7.00;5.00;;;;;;;;;;5004021;28;20021;-70
2023/11/29 12:03:14;;;;;;;6.23;4.30;;;;;;;;;;5006336;28;20087;-70
2023/11/29 12:05:41;;;;;;;9.03;4.73;;;;;;;;;;5028567;28;20052;-69
2023/11/29 12:08:09;;;;;;;7.73;5.23;;;;;;;;;;5004174;28;20044;-69
2023/11/29 12:10:35;;;;;;;16.87;5.73;;;;;;;;;;5005527;28;20124;-71
2023/11/29 12:13:04;;;;;;;9.13;4.10;;;;;;;;;;5005440;28;20614;-72
2023/11/29 12:15:34;;;;;;;6.40;4.20;;;;;;;;;;5007532;28;20046;-69
2023/11/29 12:17:59;;;;;;;7.87;4.80;;;;;;;;;;5001645;28;20037;-71
2023/11/29 12:20:27;;;;;;;6.97;4.50;;;;;;;;;;5001524;28;20030;-69
2023/11/29 12:22:52;;;;;;;13.30;4.73;;;;;;;;;;5003487;28;20022;-68
2023/11/29 12:25:19;;;;;;;8.77;5.47;;;;;;;;;;5005555;28;20034;-70
2023/11/29 12:27:46;;;;;;;8.23;4.93;;;;;;;;;;4995439;28;20041;-68
2023/11/29 12:30:13;;;;;;;8.43;4.87;;;;;;;;;;4995016;28;20049;-70
2023/11/29 12:32:41;;;;;;;7.43;4.57;;;;;;;;;;4995734;28;20594;-72
2023/11/29 12:35:09;;;;;;;7.23;4.90;;;;;;;;;;5012231;28;20044;-70
2023/11/29 12:37:35;;;;;;;6.67;4.10;;;;;;;;;;5006024;28;20041;-70
2023/11/29 12:40:00;;;;;;;8.70;4.50;;;;;;;;;;4995503;28;20956;-72
2023/11/29 12:42:26;;;;;;;8.07;4.20;;;;;;;;;;5005541;28;20155;-70
2023/11/29 12:44:52;;;;;;;9.70;4.47;;;;;;;;;;5010016;28;20068;-69
2023/11/29 12:47:28;;;;;;;7.40;4.53;;;;;;;;;;5002425;28;20538;-69
2023/11/29 12:49:55;;;;;;;8.27;3.90;;;;;;;;;;5005136;28;20390;-69
2023/11/29 12:52:20;;;;;;;6.33;3.77;;;;;;;;;;5001710;28;20151;-71
2023/11/29 12:54:46;;;;;;;14.40;4.30;;;;;;;;;;5009187;28;20401;-70
2023/11/29 12:57:12;;;;;;;11.83;4.97;;;;;;;;;;5008667;28;20037;-68
2023/11/29 12:59:39;;;;;;;8.50;4.53;;;;;;;;;;5000197;28;20034;-68
2023/11/29 13:02:04;;;;;;;6.33;3.80;;;;;;;;;;5005107;28;20039;-69
2023/11/29 13:04:30;;;;;;;7.47;4.23;;;;;;;;;;5011684;28;20041;-70
2023/11/29 13:06:59;;;;;;;9.80;5.00;;;;;;;;;;5004780;28;20445;-71
2023/11/29 13:09:24;;;;;;;8.47;4.73;;;;;;;;;;5007432;28;20021;-73
2023/11/29 13:11:50;;;;;;;11.13;5.30;;;;;;;;;;5003616;28;20561;-69
2023/11/29 13:14:16;;;;;;;16.67;5.83;;;;;;;;;;4999658;28;20026;-71
2023/11/29 13:16:41;;;;;;;9.20;4.60;;;;;;;;;;5005570;28;20568;-71
2023/11/29 13:19:09;;;;;;;11.13;5.47;;;;;;;;;;4999713;28;20479;-69
2023/11/29 13:21:36;;;;;;;9.10;5.27;;;;;;;;;;5003853;28;20140;-69
2023/11/29 13:24:02;;;;;;;9.40;5.03;;;;;;;;;;5007491;28;20034;-70
2023/11/29 13:26:28;;;;;;;7.93;4.50;;;;;;;;;;4996643;28;20053;-72
2023/11/29 13:28:57;;;;;;;10.27;4.90;;;;;;;;;;4987212;28;20033;-70
2023/11/29 13:31:23;;;;;;;13.90;7.87;;;;;;;;;;4987458;28;20117;-72
2023/11/29 13:33:49;;;;;;;9.97;5.83;;;;;;;;;;4996855;28;20125;-71
2023/11/29 13:36:14;;;;;;;9.33;5.17;;;;;;;;;;4994030;28;20412;-69
2023/11/29 13:38:41;;;;;;;16.60;6.17;;;;;;;;;;4982740;28;20034;-71
2023/11/29 13:41:08;;;;;;;8.07;4.83;;;;;;;;;;4986399;28;20038;-71
2023/11/29 13:43:33;;;;;;;7.27;4.63;;;;;;;;;;5013198;28;20132;-69
2023/11/29 13:45:59;;;;;;;7.87;5.50;;;;;;;;;;5002878;28;20121;-71
2023/11/29 13:48:25;;;;;;;13.43;4.80;;;;;;;;;;5006190;28;20036;-72
2023/11/29 13:50:51;;;;;;;10.20;6.23;;;;;;;;;;4996058;28;20036;-69
2023/11/29 13:53:17;;;;;;;8.17;5.03;;;;;;;;;;4990024;28;20034;-72
2023/11/29 13:55:42;;;;;;;10.43;5.37;;;;;;;;;;5004314;28;20394;-69
2023/11/29 13:58:08;;;;;;;9.97;5.30;;;;;;;;;;5010322;28;20116;-71
2023/11/29 14:00:45;;;;;;;10.57;5.17;;;;;;;;;;5005997;28;20025;-71
2023/11/29 14:03:14;;;;;;;11.33;5.27;;;;;;;;;;5006578;28;20026;-69
2023/11/29 14:05:45;;;;;;;13.97;5.97;;;;;;;;;;5000110;28;20038;-70
2023/11/29 14:08:15;;;;;;;9.10;5.20;;;;;;;;;;4998588;28;20109;-71
2023/11/29 14:10:43;;;;;;;9.70;4.53;;;;;;;;;;5005883;28;20088;-69
2023/11/29 14:13:13;;;;;;;9.27;5.10;;;;;;;;;;5026597;28;20033;-73
2023/11/29 14:15:40;;;;;;;8.63;4.40;;;;;;;;;;5006191;28;20054;-69
2023/11/29 14:18:12;;;;;;;9.80;5.00;;;;;;;;;;5012305;28;20029;-70
2023/11/29 14:20:41;;;;;;;;;;;;;;;;;;5019484;28;20262;-71
2023/11/29 14:23:10;;;;;;;7.13;4.67;;;;;;;;;;5014109;28;19917;-68
2023/11/29 14:25:36;;;;;;;9.30;4.70;;;;;;;;;;5011397;28;20050;-68
2023/11/29 14:28:02;;;;;;;9.73;4.50;;;;;;;;;;5016645;28;20079;-69
2023/11/29 14:30:31;;;;;;;13.87;5.00;;;;;;;;;;5007971;28;20457;-69
2023/11/29 14:33:00;;;;;;;12.60;6.07;;;;;;;;;;5003881;28;20136;-71
2023/11/29 14:35:38;;;;;;;23.87;8.77;;;;;;;;;;5013594;28;20025;-69